Terminal Aerodrome Forecast
Issued by NWS Tallahassee, FL

Home | Current Version | Previous Version | Text Only | Print | Product List | Glossary On
Versions: 1 2 3 4 5 6 7 8 9 10 11 12 13 14 15 16 17
000
FTUS42 KTAE 030200 AAD
TAFTLH
TAF AMD
KTLH 030249Z 0303/0324 00000KT 4SM RA OVC030
     FM030400 VRB03KT P6SM SCT030 OVC080
      TEMPO 0310/0313 4SM BR
     FM031400 08004KT P6SM FEW040
     FM031800 VRB15G25KT 1SM TSRA SCT030CB BKN050
     FM032100 16006KT P6SM VCTS SCT050CB BKN100=

USA.gov is the U.S. government's official web portal to all federal, state and local government web resources and services.